createdAt,value
2017-03-26T00:00:55.684Z,6.14
2017-03-26T00:05:51.987Z,6.11
2017-03-26T00:10:48.319Z,6.05
2017-03-26T00:15:44.829Z,6.14
2017-03-26T00:20:41.161Z,5.99
2017-03-26T00:25:37.656Z,5.94
2017-03-26T00:30:33.981Z,5.94
2017-03-26T00:35:30.572Z,5.89
2017-03-26T00:40:27.088Z,5.93
2017-03-26T00:45:24.292Z,5.87
2017-03-26T00:50:20.474Z,5.84
2017-03-26T00:55:17.035Z,5.71
2017-03-26T01:00:12.797Z,5.71
2017-03-26T01:05:10.073Z,5.71
2017-03-26T01:10:06.472Z,5.62
2017-03-26T01:15:02.931Z,5.68
2017-03-26T01:19:59.312Z,5.57
2017-03-26T01:24:55.894Z,5.41
2017-03-26T01:29:52.265Z,5.43
2017-03-26T01:34:48.779Z,5.36
2017-03-26T01:39:45.072Z,5.30
2017-03-26T01:44:41.330Z,5.39
2017-03-26T01:49:37.712Z,5.17
2017-03-26T01:54:33.935Z,5.29
2017-03-26T01:59:30.389Z,5.32
2017-03-26T02:04:26.828Z,5.38
2017-03-26T02:09:23.192Z,5.32
2017-03-26T02:14:19.376Z,5.43
2017-03-26T02:19:16.110Z,5.47
2017-03-26T02:24:12.518Z,5.65
2017-03-26T02:29:09.120Z,5.73
2017-03-26T02:34:05.873Z,5.75
2017-03-26T02:39:01.965Z,5.86
2017-03-26T02:43:58.607Z,6.05
2017-03-26T02:48:54.575Z,6.12
2017-03-26T02:53:51.155Z,6.08
2017-03-26T02:58:47.123Z,6.26
2017-03-26T03:03:43.688Z,6.33
2017-03-26T03:08:40.160Z,6.44
2017-03-26T03:13:37.210Z,6.38
2017-03-26T03:18:33.882Z,6.45
2017-03-26T03:23:30.204Z,6.30
2017-03-26T03:28:26.764Z,6.42
2017-03-26T03:33:23.691Z,6.42
2017-03-26T03:38:20.352Z,6.45
2017-03-26T03:43:18.051Z,6.57
2017-03-26T03:48:13.986Z,6.54
2017-03-26T03:53:10.528Z,6.56
2017-03-26T03:58:07.737Z,6.59
2017-03-26T04:03:04.232Z,6.56
2017-03-26T04:08:02.066Z,6.62
2017-03-26T04:12:58.298Z,6.56
2017-03-26T04:17:54.738Z,6.56
2017-03-26T04:22:51.189Z,6.62
2017-03-26T04:27:47.906Z,6.56
2017-03-26T04:32:43.617Z,6.56
2017-03-26T04:42:40.143Z,6.66
2017-03-26T04:47:38.055Z,6.63
2017-03-26T04:52:34.279Z,6.48
2017-03-26T04:57:31.558Z,6.62
2017-03-26T05:02:28.174Z,6.60
2017-03-26T05:07:24.459Z,6.63
2017-03-26T05:12:21.796Z,6.60
2017-03-26T05:17:18.377Z,6.59
2017-03-26T05:22:15.122Z,6.52
2017-03-26T05:27:12.165Z,6.66
2017-03-26T05:32:09.538Z,6.60
2017-03-26T05:37:06.134Z,6.64
2017-03-26T05:42:02.779Z,6.62
2017-03-26T05:46:59.255Z,6.66
2017-03-26T05:51:55.346Z,6.60
2017-03-26T06:01:51.978Z,6.60
2017-03-26T06:06:48.330Z,6.63
2017-03-26T06:11:44.731Z,6.70
2017-03-26T06:16:42.481Z,6.62
2017-03-26T06:21:39.158Z,6.52
2017-03-26T06:26:35.538Z,6.69
2017-03-26T06:31:32.245Z,6.92
2017-03-26T06:36:29.401Z,7.00
2017-03-26T06:41:25.997Z,7.29
2017-03-26T06:46:22.800Z,7.38
2017-03-26T06:51:20.162Z,7.48
2017-03-26T06:56:16.663Z,7.93
2017-03-26T07:01:14.555Z,8.49
2017-03-26T07:06:11.151Z,8.87
2017-03-26T07:11:08.099Z,8.73
2017-03-26T07:16:07.090Z,8.18
2017-03-26T07:21:02.968Z,8.13
2017-03-26T07:25:59.465Z,8.13
2017-03-26T07:30:55.924Z,8.19
2017-03-26T07:35:52.983Z,8.70
2017-03-26T07:40:49.461Z,9.32
2017-03-26T07:45:46.091Z,9.31
2017-03-26T07:50:43.388Z,9.66
2017-03-26T07:55:40.091Z,10.30
2017-03-26T08:00:37.036Z,10.54
2017-03-26T08:05:33.783Z,11.17
2017-03-26T08:10:31.590Z,11.12
2017-03-26T08:15:27.992Z,11.02
2017-03-26T08:20:24.888Z,12.10
2017-03-26T08:25:22.179Z,11.50
2017-03-26T08:30:18.847Z,11.22
2017-03-26T08:35:14.751Z,10.05
2017-03-26T08:40:11.250Z,10.71
2017-03-26T08:45:07.527Z,10.72
2017-03-26T08:50:04.097Z,10.89
2017-03-26T08:55:00.535Z,10.72
2017-03-26T08:59:57.214Z,11.04
2017-03-26T09:04:54.287Z,10.48
2017-03-26T09:09:50.605Z,10.42
2017-03-26T09:14:46.703Z,10.28
2017-03-26T09:19:44.515Z,10.30
2017-03-26T10:26:18.898Z,19.67
2017-03-26T10:35:55.869Z,15.40
2017-03-26T10:40:55.654Z,13.35
2017-03-26T10:45:51.515Z,13.47
2017-03-26T10:50:49.186Z,13.41
2017-03-26T10:55:46.047Z,12.85
2017-03-26T11:00:42.528Z,12.46
2017-03-26T11:05:39.344Z,13.00
2017-03-26T11:10:36.749Z,13.31
2017-03-26T11:15:33.925Z,13.42
2017-03-26T11:20:31.287Z,13.56
2017-03-26T11:25:28.234Z,13.41
2017-03-26T11:30:30.907Z,14.25
2017-03-26T11:35:27.482Z,14.05
2017-03-26T11:40:27.284Z,14.04
2017-03-26T11:45:24.092Z,14.30
2017-03-26T11:50:21.031Z,13.83
2017-03-26T11:55:17.699Z,14.65
2017-03-26T12:00:15.046Z,14.35
2017-03-26T12:05:11.513Z,14.47
2017-03-26T12:10:08.714Z,14.37
2017-03-26T12:15:05.281Z,14.07
2017-03-26T12:20:02.233Z,14.40
2017-03-26T12:24:59.892Z,14.92
2017-03-26T12:29:56.234Z,14.03
2017-03-26T12:34:52.221Z,14.15
2017-03-26T12:39:48.001Z,14.12
2017-03-26T12:44:44.414Z,13.49
2017-03-26T12:49:42.733Z,14.03
2017-03-26T12:54:39.289Z,13.77
2017-03-26T12:59:35.108Z,13.97
2017-03-26T13:04:31.354Z,13.97
2017-03-26T13:09:28.868Z,14.29
2017-03-26T13:14:25.413Z,13.89
2017-03-26T13:19:22.357Z,14.07
2017-03-26T13:24:19.391Z,14.18
2017-03-26T13:29:16.309Z,13.96
2017-03-26T13:34:12.721Z,14.12
2017-03-26T13:39:10.162Z,14.29
2017-03-26T13:44:06.933Z,14.25
2017-03-26T13:49:02.987Z,14.11
2017-03-26T13:54:00.337Z,14.63
2017-03-26T13:58:57.075Z,14.47
2017-03-26T14:03:53.879Z,14.65
2017-03-26T14:08:51.282Z,14.81
2017-03-26T14:13:48.490Z,14.89
2017-03-26T14:18:44.622Z,14.63
2017-03-26T14:23:40.951Z,14.65
2017-03-26T14:28:37.241Z,14.65
2017-03-26T14:33:34.955Z,15.10
2017-03-26T14:38:31.412Z,14.65
2017-03-26T14:43:28.010Z,14.68
2017-03-26T14:48:24.464Z,14.54
2017-03-26T14:53:20.790Z,14.32
2017-03-26T14:58:17.259Z,14.32
2017-03-26T15:03:13.315Z,14.12
2017-03-26T15:08:09.763Z,14.14
2017-03-26T15:13:06.255Z,14.12
2017-03-26T15:18:02.522Z,14.23
2017-03-26T15:22:58.954Z,14.12
2017-03-26T15:27:55.688Z,14.15
2017-03-26T15:32:51.810Z,13.87
2017-03-26T15:37:48.217Z,13.86
2017-03-26T15:42:45.084Z,13.81
2017-03-26T15:47:41.659Z,13.81
2017-03-26T15:52:38.203Z,13.90
2017-03-26T15:57:34.580Z,13.78
2017-03-26T16:02:30.670Z,13.62
2017-03-26T16:07:27.537Z,13.60
2017-03-26T16:12:24.081Z,13.54
2017-03-26T16:17:21.623Z,13.41
2017-03-26T16:22:18.859Z,13.22
2017-03-26T16:27:15.227Z,13.25
2017-03-26T16:32:11.249Z,13.30
2017-03-26T16:37:08.199Z,13.18
2017-03-26T16:42:04.769Z,13.04
2017-03-26T16:47:01.852Z,12.97
2017-03-26T16:51:58.778Z,12.94
2017-03-26T16:56:55.155Z,12.78
2017-03-26T17:01:51.824Z,12.86
2017-03-26T17:06:48.549Z,12.67
2017-03-26T17:11:45.454Z,12.65
2017-03-26T17:16:42.013Z,12.57
2017-03-26T17:21:38.915Z,12.54
2017-03-26T17:26:35.476Z,12.45
2017-03-26T17:31:32.086Z,12.22
2017-03-26T17:36:28.653Z,12.20
2017-03-26T17:41:25.423Z,12.10
2017-03-26T17:46:22.343Z,12.18
2017-03-26T17:51:18.823Z,11.97
2017-03-26T17:56:15.897Z,11.86
2017-03-26T18:01:12.638Z,11.80
2017-03-26T18:06:09.428Z,11.68
2017-03-26T18:11:06.138Z,11.60
2017-03-26T18:16:03.075Z,11.51
2017-03-26T18:21:00.261Z,11.51
2017-03-26T18:30:57.412Z,11.29
2017-03-26T18:35:54.004Z,11.22
2017-03-26T18:40:50.021Z,11.00
2017-03-26T18:45:46.701Z,10.96
2017-03-26T18:50:43.362Z,11.05
2017-03-26T18:55:39.961Z,10.86
2017-03-26T19:00:36.697Z,10.76
2017-03-26T19:05:33.965Z,10.76
2017-03-26T19:10:30.268Z,10.60
2017-03-26T19:15:26.907Z,10.57
2017-03-26T19:20:23.145Z,10.57
2017-03-26T19:25:19.590Z,10.54
2017-03-26T19:30:15.868Z,10.40
2017-03-26T19:35:12.848Z,10.41
2017-03-26T19:40:08.795Z,10.35
2017-03-26T19:45:04.807Z,10.35
2017-03-26T19:50:01.189Z,10.15
2017-03-26T19:54:58.688Z,10.05
2017-03-26T19:59:55.270Z,10.04
2017-03-26T20:04:52.779Z,9.98
2017-03-26T20:09:49.355Z,9.95
2017-03-26T20:14:45.535Z,9.91
2017-03-26T20:19:42.234Z,9.92
2017-03-26T20:24:38.534Z,9.80
2017-03-26T20:29:34.672Z,9.74
2017-03-26T20:34:32.339Z,9.72
2017-03-26T20:39:29.554Z,9.69
2017-03-26T20:44:26.235Z,9.64
2017-03-26T20:49:22.461Z,9.61
2017-03-26T20:54:19.039Z,9.62
2017-03-26T20:59:17.239Z,9.47
2017-03-26T21:04:13.416Z,9.51
2017-03-26T21:09:10.022Z,9.51
2017-03-26T21:14:06.583Z,9.47
2017-03-26T21:19:03.299Z,9.36
2017-03-26T21:23:59.780Z,9.34
2017-03-26T21:33:57.643Z,9.25
2017-03-26T21:38:53.825Z,9.21
2017-03-26T21:43:50.082Z,9.22
2017-03-26T21:48:46.618Z,8.91
2017-03-26T21:53:43.173Z,8.91
2017-03-26T21:58:39.764Z,9.04
2017-03-26T22:03:36.384Z,8.92
2017-03-26T22:08:32.801Z,8.95
2017-03-26T22:13:30.094Z,8.99
2017-03-26T22:18:26.356Z,8.87
2017-03-26T22:23:23.136Z,9.02
2017-03-26T22:28:19.947Z,9.10
2017-03-26T22:33:16.430Z,8.95
2017-03-26T22:38:12.695Z,8.84
2017-03-26T22:43:10.407Z,8.91
2017-03-26T22:48:06.768Z,8.94
2017-03-26T22:53:03.111Z,8.91
2017-03-26T22:57:59.811Z,8.78
2017-03-26T23:02:56.489Z,8.79
2017-03-26T23:07:53.237Z,8.69
2017-03-26T23:12:50.328Z,8.85
2017-03-26T23:17:46.812Z,8.64
2017-03-26T23:22:43.691Z,8.36
2017-03-26T23:27:40.413Z,8.48
2017-03-26T23:32:36.850Z,8.44
2017-03-26T23:37:33.517Z,8.37
2017-03-26T23:42:30.333Z,8.53
2017-03-26T23:47:27.454Z,8.49
2017-03-26T23:52:24.127Z,8.42
2017-03-26T23:57:20.453Z,8.44
